aviador You're here:

CYLL Decoded Metar

LLOYDMINSTER in AB, CANADA
Report Time2018-04-26 12:00:00
UTC Time2018-04-26 13:10:47
Flight Rules Old
Wind260° at 09 kt
W.Decomp.*RWY 26: 8.7 kt HW 2.3 kt LCW
RWY 30: 5.2 kt HW 7.4 kt LCW
W.Rank260° ranks 5
Current wind is above 260° avg. (8.9)
Visibility9999 m
Phenomena:N/A
Clouds:N/A
Expected CloudBase > 2,000 ft AGL from Temp-Dew spread
CeilingNone
Temp03°C (ISA -8)
Dew Point-2°C (70% RH)
AAT-2.5°C
QNH1016 hPa
Density Alt1,250 ft
Elevation2,195 ft
Report Wrong Elevation
Raw Report
CYLL 261200Z AUTO 26009KT 9SM CLR 03/M02 A3000 RMK SLP178=

Extra information for CYLL:More info

Metar Taf Metar & Taf Last 4 Metars F.Rules Stats Wind Profile Meteogram Temp Stats Airport Information Weather charts Add Link Nearby VenuesMetar ALERT Operation Metar Decoded Social comments